Time;durP1;ratioP1;P1;durP2;ratioP2;P2;SDS_P1;SDS_P2;PMS_P1;PMS_P2;Temp;Humidity;BMP_temperature;BMP_pressure;BME280_temperature;BME280_humidity;BME280_pressure;Samples;Min_cycle;Max_cycle;Signal;HPM_P1;HPM_P2
2023/04/05 00:01:33;;;;;;;29.75;13.38;;;;;;;-144.87;100.00;61487.56;4992455;28;20037;-89
2023/04/05 00:04:19;;;;;;;33.72;13.52;;;;;;;-144.87;100.00;61487.56;4994432;28;20551;-89
2023/04/05 00:06:51;;;;;;;23.88;12.85;;;;;;;-144.87;100.00;61487.56;4996108;28;20130;-88
2023/04/05 00:09:20;;;;;;;24.45;11.95;;;;;;;-144.87;100.00;61487.56;4992275;28;20034;-88
2023/04/05 00:11:46;;;;;;;21.88;12.00;;;;;;;-144.87;100.00;61487.56;5007555;28;20109;-89
2023/04/05 00:14:32;;;;;;;19.42;11.55;;;;;;;-144.87;100.00;61487.56;4988793;28;20043;-89
2023/04/05 00:16:58;;;;;;;26.35;12.95;;;;;;;-144.87;100.00;61487.56;4993083;28;20026;-88
2023/04/05 00:19:25;;;;;;;23.00;11.43;;;;;;;-144.87;100.00;61487.56;4995250;28;20054;-88
2023/04/05 00:25:14;;;;;;;27.75;12.70;;;;;;;-144.87;100.00;61487.56;4998144;28;20045;-89
2023/04/05 00:27:59;;;;;;;23.13;11.60;;;;;;;-144.87;100.00;61487.56;4996129;28;20050;-87
2023/04/05 00:30:28;;;;;;;26.00;11.90;;;;;;;-144.87;100.00;61487.56;4994561;28;20081;-88
2023/04/05 00:32:56;;;;;;;20.60;10.65;;;;;;;-144.87;100.00;61487.56;5014880;28;20038;-88
2023/04/05 00:35:22;;;;;;;21.52;11.88;;;;;;;-144.87;100.00;61487.56;4995480;28;20092;-89
2023/04/05 00:37:48;;;;;;;23.92;11.70;;;;;;;-144.87;100.00;61487.56;4997109;28;20403;-89
2023/04/05 00:40:52;;;;;;;26.73;12.57;;;;;;;-144.87;100.00;61487.56;4997429;28;20056;-89
2023/04/05 00:43:20;;;;;;;21.85;12.43;;;;;;;-144.87;100.00;61487.56;4999461;28;20081;-89
2023/04/05 00:45:48;;;;;;;25.13;12.52;;;;;;;-144.87;100.00;61487.56;4994443;28;20041;-88
2023/04/05 00:48:14;;;;;;;20.33;11.75;;;;;;;-144.87;100.00;61487.56;4982516;28;20046;-89
2023/04/05 00:54:42;;;;;;;26.65;12.68;;;;;;;-144.87;100.00;61487.56;4999444;28;20084;-89
2023/04/05 00:57:29;;;;;;;23.83;12.07;;;;;;;-144.87;100.00;61487.56;4996060;28;20081;-88
2023/04/05 01:00:00;;;;;;;21.38;11.75;;;;;;;-144.87;100.00;61487.56;4992554;28;20034;-89
2023/04/05 01:02:54;;;;;;;23.98;12.15;;;;;;;-144.87;100.00;61487.56;5010948;28;20034;-87
2023/04/05 01:05:39;;;;;;;24.98;11.95;;;;;;;-144.87;100.00;61487.56;4996709;28;20036;-89
2023/04/05 01:08:24;;;;;;;24.08;12.43;;;;;;;-144.87;100.00;61487.56;4995249;28;20058;-88
2023/04/05 01:10:54;;;;;;;19.70;11.20;;;;;;;-144.87;100.00;61487.56;4992522;28;20117;-89
2023/04/05 01:13:21;;;;;;;20.67;11.70;;;;;;;-144.87;100.00;61487.56;5008347;28;20034;-88
2023/04/05 01:16:06;;;;;;;22.50;11.30;;;;;;;-144.87;100.00;61487.56;5007645;28;20046;-88
2023/04/05 01:18:35;;;;;;;23.75;11.73;;;;;;;-144.87;100.00;61487.56;4989520;28;20034;-88
2023/04/05 01:21:38;;;;;;;22.50;11.43;;;;;;;-144.87;100.00;61487.56;4993703;28;20097;-88
2023/04/05 01:24:22;;;;;;;20.55;11.70;;;;;;;-144.87;100.00;61487.56;5013172;28;20507;-89
2023/04/05 01:26:51;;;;;;;20.88;11.18;;;;;;;-144.87;100.00;61487.56;5029787;28;20029;-89
2023/04/05 01:29:36;;;;;;;25.63;11.98;;;;;;;-144.87;100.00;61487.56;5029533;28;20049;-88
2023/04/05 01:32:18;;;;;;;23.67;12.00;;;;;;;-144.87;100.00;61487.56;5005741;28;20048;-89
2023/04/05 01:35:22;;;;;;;20.38;11.65;;;;;;;-144.87;100.00;61487.56;5018105;28;20045;-88
2023/04/05 01:37:52;;;;;;;22.75;12.25;;;;;;;-144.87;100.00;61487.56;5015672;28;20124;-88
2023/04/05 01:40:19;;;;;;;14.70;8.15;;;;;;;-144.87;100.00;61487.56;5029084;28;20567;-88
2023/04/05 01:42:45;;;;;;;22.50;11.70;;;;;;;-144.87;100.00;61487.56;4994667;28;20060;-88
2023/04/05 01:45:12;;;;;;;27.38;12.88;;;;;;;-144.87;100.00;61487.56;5028230;28;20037;-88
2023/04/05 01:51:09;;;;;;;25.38;12.45;;;;;;;-144.87;100.00;61487.56;5027457;28;20521;-88
2023/04/05 01:53:37;;;;;;;26.25;12.18;;;;;;;-144.87;100.00;61487.56;4997883;28;20030;-87
2023/04/05 01:56:24;;;;;;;23.88;11.25;;;;;;;-144.87;100.00;61487.56;5028815;28;20387;-88
2023/04/05 01:58:51;;;;;;;24.38;11.30;;;;;;;-144.87;100.00;61487.56;5011296;28;20540;-88
2023/04/05 02:01:18;;;;;;;24.85;11.65;;;;;;;-144.87;100.00;61487.56;5011856;28;20091;-88
2023/04/05 02:03:44;;;;;;;27.35;12.10;;;;;;;-144.87;100.00;61487.56;5029650;28;20042;-88
2023/04/05 02:06:11;;;;;;;22.98;11.68;;;;;;;-144.87;100.00;61487.56;5030456;28;20038;-87
2023/04/05 02:08:37;;;;;;;24.75;12.73;;;;;;;-144.87;100.00;61487.56;5021077;28;20057;-88
2023/04/05 02:11:05;;;;;;;24.92;12.38;;;;;;;-144.87;100.00;61487.56;4983777;28;20037;-88
2023/04/05 02:13:32;;;;;;;24.60;12.73;;;;;;;-144.87;100.00;61487.56;5009245;28;20045;-88
2023/04/05 02:15:59;;;;;;;25.38;11.85;;;;;;;-144.87;100.00;61487.56;5028163;28;20041;-88
2023/04/05 02:18:30;;;;;;;28.73;12.73;;;;;;;-144.87;100.00;61487.56;5017993;28;20044;-87
2023/04/05 02:21:15;;;;;;;24.20;12.00;;;;;;;-144.87;100.00;61487.56;5014632;28;20033;-86
2023/04/05 02:23:42;;;;;;;27.90;12.98;;;;;;;-144.87;100.00;61487.56;5032168;28;20499;-86
2023/04/05 02:26:12;;;;;;;23.58;13.52;;;;;;;-144.87;100.00;61487.56;5014182;28;20155;-87
2023/04/05 02:28:39;;;;;;;25.75;13.98;;;;;;;-144.87;100.00;61487.56;5030983;28;20079;-88
2023/04/05 02:31:14;;;;;;;32.10;14.30;;;;;;;-144.87;100.00;61487.56;5032729;28;20087;-88
2023/04/05 02:33:41;;;;;;;28.40;13.73;;;;;;;-144.87;100.00;61487.56;5031708;28;20100;-88
2023/04/05 02:36:10;;;;;;;26.08;13.88;;;;;;;-144.87;100.00;61487.56;5031156;28;20022;-87
2023/04/05 02:38:36;;;;;;;28.35;14.40;;;;;;;-144.87;100.00;61487.56;5032771;28;20030;-88
2023/04/05 02:41:06;;;;;;;29.33;14.48;;;;;;;-144.87;100.00;61487.56;5018276;28;20387;-88
2023/04/05 02:43:34;;;;;;;30.40;15.05;;;;;;;-144.87;100.00;61487.56;5031443;28;20076;-88
2023/04/05 02:46:00;;;;;;;31.40;15.38;;;;;;;-144.87;100.00;61487.56;5014422;28;20037;-88
2023/04/05 02:48:26;;;;;;;29.45;14.18;;;;;;;-144.87;100.00;61487.56;5017767;28;20045;-88
2023/04/05 02:50:54;;;;;;;34.72;15.70;;;;;;;-144.87;100.00;61487.56;5029782;28;20026;-88
2023/04/05 02:53:21;;;;;;;28.38;14.73;;;;;;;-144.87;100.00;61487.56;5013435;28;20098;-88
2023/04/05 02:55:55;;;;;;;31.58;15.27;;;;;;;-144.87;100.00;61487.56;5019076;28;20129;-88
2023/04/05 02:58:42;;;;;;;29.90;15.43;;;;;;;-144.87;100.00;61487.56;5014433;28;20569;-87
2023/04/05 03:01:10;;;;;;;27.90;15.57;;;;;;;-144.87;100.00;61487.56;5015748;28;20024;-87
2023/04/05 03:03:36;;;;;;;35.90;17.15;;;;;;;-144.87;100.00;61487.56;5014656;28;20041;-88
2023/04/05 03:06:08;;;;;;;30.63;14.60;;;;;;;-144.87;100.00;61487.56;5019573;28;20067;-86
2023/04/05 03:08:58;;;;;;;31.60;15.35;;;;;;;-144.87;100.00;61487.56;5031417;28;20029;-88
2023/04/05 03:11:25;;;;;;;36.67;14.80;;;;;;;-144.87;100.00;61487.56;5020319;28;20037;-88
2023/04/05 03:13:58;;;;;;;31.33;15.48;;;;;;;-144.87;100.00;61487.56;5012486;28;20123;-88
2023/04/05 03:16:57;;;;;;;33.50;16.10;;;;;;;-144.87;100.00;61487.56;5001332;28;20112;-88
2023/04/05 03:19:34;;;;;;;38.80;16.83;;;;;;;-144.87;100.00;61487.56;5030135;28;20037;-88
2023/04/05 03:22:11;;;;;;;35.17;15.80;;;;;;;-144.87;100.00;61487.56;4985769;28;20123;-88
2023/04/05 03:24:41;;;;;;;39.97;16.70;;;;;;;-144.87;100.00;61487.56;5026415;28;20071;-87
2023/04/05 03:27:10;;;;;;;33.55;15.98;;;;;;;-144.87;100.00;61487.56;4999795;28;20133;-88
2023/04/05 03:30:06;;;;;;;35.97;18.23;;;;;;;-144.87;100.00;61487.56;5012763;28;20040;-88
2023/04/05 03:32:38;;;;;;;34.50;17.13;;;;;;;-144.87;100.00;61487.56;5010568;28;20488;-88
2023/04/05 03:35:15;;;;;;;35.63;18.25;;;;;;;-144.87;100.00;61487.56;5016454;28;20541;-87
2023/04/05 03:37:45;;;;;;;43.25;19.17;;;;;;;-144.87;100.00;61487.56;5014392;28;20175;-88
2023/04/05 03:40:15;;;;;;;33.92;17.08;;;;;;;-144.87;100.00;61487.56;5030641;28;20495;-87
2023/04/05 03:42:43;;;;;;;39.72;18.83;;;;;;;-144.87;100.00;61487.56;5013001;28;20049;-87
2023/04/05 03:45:10;;;;;;;38.60;18.65;;;;;;;-144.87;100.00;61487.56;5026872;28;20041;-87
2023/04/05 03:47:41;;;;;;;39.13;18.35;;;;;;;-144.87;100.00;61487.56;5029906;28;20059;-87
2023/04/05 03:50:08;;;;;;;36.22;17.00;;;;;;;-144.87;100.00;61487.56;5013783;28;20116;-87
2023/04/05 03:52:35;;;;;;;33.05;16.92;;;;;;;-144.87;100.00;61487.56;5030095;28;20049;-87
2023/04/05 03:55:01;;;;;;;34.42;18.08;;;;;;;-144.87;100.00;61487.56;5033575;28;20116;-87
2023/04/05 03:57:31;;;;;;;32.38;16.95;;;;;;;-144.87;100.00;61487.56;5004435;28;20053;-87
2023/04/05 04:00:13;;;;;;;45.38;19.23;;;;;;;-144.87;100.00;61487.56;5011743;28;20045;-86
2023/04/05 04:02:45;;;;;;;44.38;19.67;;;;;;;-144.87;100.00;61487.56;5028633;28;20580;-86
2023/04/05 04:05:16;;;;;;;56.70;21.27;;;;;;;-144.87;100.00;61487.56;5019903;28;20033;-86
2023/04/05 04:07:43;;;;;;;47.30;21.20;;;;;;;-144.87;100.00;61487.56;5014175;28;20120;-86
2023/04/05 04:10:12;;;;;;;40.97;20.17;;;;;;;-144.87;100.00;61487.56;5030469;28;20498;-86
2023/04/05 04:12:40;;;;;;;38.08;19.65;;;;;;;-144.87;100.00;61487.56;5028013;28;20060;-86
2023/04/05 04:15:08;;;;;;;46.25;20.05;;;;;;;-144.87;100.00;61487.56;5024847;28;20030;-86
2023/04/05 04:18:12;;;;;;;52.33;21.52;;;;;;;-144.87;100.00;61487.56;5021048;28;20037;-86
2023/04/05 04:21:23;;;;;;;46.42;20.65;;;;;;;-144.87;100.00;61487.56;4990785;28;20049;-85
2023/04/05 04:24:17;;;;;;;44.80;20.05;;;;;;;-144.87;100.00;61487.56;5031251;28;20115;-85
2023/04/05 04:27:02;;;;;;;46.78;20.70;;;;;;;-144.87;100.00;61487.56;5032032;28;20107;-85
2023/04/05 04:29:45;;;;;;;54.55;22.85;;;;;;;-144.87;100.00;61487.56;5009734;28;20088;-85
2023/04/05 04:35:32;;;;;;;51.03;21.35;;;;;;;-144.87;100.00;61487.56;5031101;28;20140;-84
2023/04/05 04:38:20;;;;;;;58.67;22.88;;;;;;;-144.87;100.00;61487.56;5013514;28;20041;-85
2023/04/05 04:41:18;;;;;;;55.72;22.65;;;;;;;-144.87;100.00;61487.56;5022693;28;20068;-84
2023/04/05 04:43:45;;;;;;;55.17;22.98;;;;;;;-144.87;100.00;61487.56;5024422;28;20057;-85
2023/04/05 04:46:44;;;;;;;127.57;26.43;;;;;;;-144.87;100.00;61487.56;5016395;28;20025;-85
2023/04/05 04:49:17;;;;;;;52.08;24.02;;;;;;;-144.87;100.00;61487.56;5025641;28;20041;-85
2023/04/05 04:51:48;;;;;;;78.13;24.77;;;;;;;-144.87;100.00;61487.56;5027049;28;20044;-84
2023/04/05 04:54:19;;;;;;;57.13;24.08;;;;;;;-144.87;100.00;61487.56;5014603;28;20037;-84
2023/04/05 04:56:47;;;;;;;53.85;22.58;;;;;;;-144.87;100.00;61487.56;5028710;28;20091;-84
2023/04/05 04:59:13;;;;;;;60.58;24.13;;;;;;;-144.87;100.00;61487.56;5021967;28;20568;-84
2023/04/05 05:01:40;;;;;;;46.70;21.60;;;;;;;-144.87;100.00;61487.56;5026310;28;20498;-85
2023/04/05 05:04:09;;;;;;;53.60;23.33;;;;;;;-144.87;100.00;61487.56;5013519;28;20049;-85
2023/04/05 05:06:37;;;;;;;52.53;22.88;;;;;;;-144.87;100.00;61487.56;5010249;28;20067;-85
2023/04/05 05:09:03;;;;;;;52.60;22.55;;;;;;;-144.87;100.00;61487.56;5028139;28;20136;-84
2023/04/05 05:11:33;;;;;;;57.45;23.80;;;;;;;-144.87;100.00;61487.56;5023492;28;20340;-84
2023/04/05 05:13:59;;;;;;;58.75;24.92;;;;;;;-144.87;100.00;61487.56;5011384;28;20048;-85
2023/04/05 05:16:27;;;;;;;109.22;29.20;;;;;;;-144.87;100.00;61487.56;5007648;28;20511;-85
2023/04/05 05:18:54;;;;;;;81.75;28.30;;;;;;;-144.87;100.00;61487.56;5027172;28;20441;-83
2023/04/05 05:21:23;;;;;;;72.70;24.80;;;;;;;-144.87;100.00;61487.56;5009375;28;20607;-84
2023/04/05 05:23:57;;;;;;;61.83;24.30;;;;;;;-144.87;100.00;61487.56;5022941;28;20053;-83
2023/04/05 05:26:23;;;;;;;53.35;25.02;;;;;;;-144.87;100.00;61487.56;5026348;28;20060;-85
2023/04/05 05:28:50;;;;;;;71.80;24.80;;;;;;;-144.87;100.00;61487.56;5026019;28;20037;-84
2023/04/05 05:31:16;;;;;;;51.65;25.25;;;;;;;-144.87;100.00;61487.56;5026388;28;20517;-84
2023/04/05 05:33:46;;;;;;;69.70;27.08;;;;;;;-144.87;100.00;61487.56;5026279;28;20053;-84
2023/04/05 05:36:13;;;;;;;73.03;27.40;;;;;;;-144.87;100.00;61487.56;5008679;28;20052;-84
2023/04/05 05:38:41;;;;;;;64.90;29.58;;;;;;;-144.87;100.00;61487.56;5027799;28;20477;-84
2023/04/05 05:41:10;;;;;;;51.92;25.27;;;;;;;-144.87;100.00;61487.56;5023238;28;20107;-85
2023/04/05 05:43:36;;;;;;;44.78;23.63;;;;;;;-144.87;100.00;61487.56;5024830;28;20406;-84
2023/04/05 05:46:02;;;;;;;45.25;21.30;;;;;;;-144.87;100.00;61487.56;5024021;28;20041;-85
2023/04/05 05:48:30;;;;;;;34.35;17.33;;;;;;;-144.87;100.00;61487.56;5028101;28;20043;-84
2023/04/05 05:51:00;;;;;;;30.77;15.55;;;;;;;-144.87;100.00;61487.56;5026807;28;20037;-85
2023/04/05 05:53:27;;;;;;;27.77;14.88;;;;;;;-144.87;100.00;61487.56;5026249;28;20033;-83
2023/04/05 05:55:54;;;;;;;22.13;12.63;;;;;;;-144.87;100.00;61487.56;5020110;28;20037;-83
2023/04/05 05:58:22;;;;;;;21.85;11.20;;;;;;;-144.87;100.00;61487.56;5004044;28;20045;-82
2023/04/05 06:00:51;;;;;;;36.03;13.35;;;;;;;-144.87;100.00;61487.56;4972313;28;20406;-83
2023/04/05 06:03:18;;;;;;;26.25;12.07;;;;;;;-144.87;100.00;61487.56;5025811;28;20029;-82
2023/04/05 06:05:53;;;;;;;21.90;11.18;;;;;;;-144.87;100.00;61487.56;5023701;28;20041;-85
2023/04/05 06:08:23;;;;;;;20.98;10.80;;;;;;;-144.87;100.00;61487.56;5026361;28;20033;-83
2023/04/05 06:10:51;;;;;;;28.52;11.20;;;;;;;-144.87;100.00;61487.56;5023738;28;20045;-84
2023/04/05 06:13:20;;;;;;;22.45;10.23;;;;;;;-144.87;100.00;61487.56;5021652;28;20164;-83
2023/04/05 06:15:50;;;;;;;21.63;10.90;;;;;;;-144.87;100.00;61487.56;5025871;28;20223;-84
2023/04/05 06:18:16;;;;;;;18.65;10.48;;;;;;;-144.87;100.00;61487.56;5003990;28;20033;-82
2023/04/05 06:20:43;;;;;;;19.35;10.35;;;;;;;-144.87;100.00;61487.56;5022273;28;20060;-83
2023/04/05 06:23:10;;;;;;;21.67;9.88;;;;;;;-144.87;100.00;61487.56;5009476;28;20052;-82
2023/04/05 06:25:37;;;;;;;20.73;10.30;;;;;;;-144.87;100.00;61487.56;5020606;28;20045;-83
2023/04/05 06:28:04;;;;;;;17.50;10.15;;;;;;;-144.87;100.00;61487.56;5021062;28;20526;-83
2023/04/05 06:30:33;;;;;;;19.60;10.93;;;;;;;-144.87;100.00;61487.56;5024410;28;20521;-83
2023/04/05 06:33:00;;;;;;;21.20;10.75;;;;;;;-144.87;100.00;61487.56;5025038;28;20049;-83
2023/04/05 06:35:26;;;;;;;18.27;9.95;;;;;;;-144.87;100.00;61487.56;5026015;28;20036;-83
2023/04/05 06:37:53;;;;;;;18.35;10.25;;;;;;;-144.87;100.00;61487.56;5026486;28;20037;-83
2023/04/05 06:40:19;;;;;;;21.55;10.57;;;;;;;-144.87;100.00;61487.56;5027460;28;20112;-84
2023/04/05 06:42:46;;;;;;;20.35;10.20;;;;;;;-144.87;100.00;61487.56;5025715;28;20121;-84
2023/04/05 06:45:18;;;;;;;25.67;11.55;;;;;;;-144.87;100.00;61487.56;4992289;28;20053;-84
2023/04/05 06:47:44;;;;;;;20.20;11.25;;;;;;;-144.87;100.00;61487.56;5024999;28;20128;-83
2023/04/05 06:50:10;;;;;;;23.13;11.23;;;;;;;-144.87;100.00;61487.56;5008361;28;20352;-84
2023/04/05 06:52:36;;;;;;;25.02;11.15;;;;;;;-144.87;100.00;61487.56;5006511;28;20038;-83
2023/04/05 06:55:03;;;;;;;21.27;10.38;;;;;;;-144.87;100.00;61487.56;5007879;28;20029;-84
2023/04/05 06:57:30;;;;;;;20.17;10.65;;;;;;;-144.87;100.00;61487.56;5023949;28;20029;-82
2023/04/05 06:59:57;;;;;;;21.08;10.82;;;;;;;-144.87;100.00;61487.56;5008953;28;20509;-83
2023/04/05 07:02:23;;;;;;;18.85;10.73;;;;;;;-144.87;100.00;61487.56;5021323;28;20117;-84
2023/04/05 07:04:49;;;;;;;20.42;11.07;;;;;;;-144.87;100.00;61487.56;5025151;28;20387;-83
2023/04/05 07:07:16;;;;;;;28.38;11.23;;;;;;;-144.87;100.00;61487.56;5024439;28;20371;-84
2023/04/05 07:09:43;;;;;;;21.13;12.73;;;;;;;-144.87;100.00;61487.56;5027768;28;20041;-83
2023/04/05 07:12:28;;;;;;;18.65;11.13;;;;;;;-144.87;100.00;61487.56;5023912;28;20116;-84
2023/04/05 07:15:13;;;;;;;16.70;10.10;;;;;;;-144.87;100.00;61487.56;5029774;28;20041;-83
2023/04/05 07:17:40;;;;;;;22.88;11.57;;;;;;;-144.87;100.00;61487.56;5028375;28;20061;-82
2023/04/05 07:20:08;;;;;;;22.10;11.20;;;;;;;-144.87;100.00;61487.56;5011934;28;20099;-83
2023/04/05 07:22:34;;;;;;;21.23;10.20;;;;;;;-144.87;100.00;61487.56;5022118;28;20106;-84
2023/04/05 07:25:01;;;;;;;19.52;10.50;;;;;;;-144.87;100.00;61487.56;5026669;28;20146;-83
2023/04/05 07:27:48;;;;;;;14.95;10.57;;;;;;;-144.87;100.00;61487.56;5029385;28;20069;-84
2023/04/05 07:30:14;;;;;;;18.95;10.63;;;;;;;-144.87;100.00;61487.56;5029325;28;20041;-83
2023/04/05 07:32:41;;;;;;;16.55;10.60;;;;;;;-144.87;100.00;61487.56;5027407;28;20099;-83
2023/04/05 07:35:08;;;;;;;14.57;10.23;;;;;;;-144.87;100.00;61487.56;5030403;28;20183;-84
2023/04/05 07:37:34;;;;;;;23.25;11.40;;;;;;;-144.87;100.00;61487.56;5029071;28;20080;-84
2023/04/05 07:40:01;;;;;;;22.35;10.55;;;;;;;-144.87;100.00;61487.56;5010418;28;20087;-85
2023/04/05 07:42:27;;;;;;;25.05;10.38;;;;;;;-144.87;100.00;61487.56;5025446;28;20052;-85
2023/04/05 07:44:56;;;;;;;15.88;10.93;;;;;;;-144.87;100.00;61487.56;5026790;28;20034;-85
2023/04/05 07:48:01;;;;;;;22.10;10.60;;;;;;;-144.87;100.00;61487.56;5031252;28;20095;-84
2023/04/05 07:51:05;;;;;;;20.10;10.48;;;;;;;-144.87;100.00;61487.56;5028702;28;20109;-85
2023/04/05 07:53:50;;;;;;;16.75;10.57;;;;;;;-144.87;100.00;61487.56;5029423;28;20057;-86
2023/04/05 07:56:16;;;;;;;17.10;10.25;;;;;;;-144.87;100.00;61487.56;5026438;28;20038;-86
2023/04/05 07:58:43;;;;;;;16.35;10.13;;;;;;;-144.87;100.00;61487.56;5029341;28;20430;-85
2023/04/05 08:01:10;;;;;;;16.23;9.60;;;;;;;-144.87;100.00;61487.56;5030625;28;20045;-86
2023/04/05 08:03:38;;;;;;;14.45;9.48;;;;;;;-144.87;100.00;61487.56;5026109;28;20033;-86
2023/04/05 08:06:17;;;;;;;15.85;9.05;;;;;;;-144.87;100.00;61487.56;5026361;28;20096;-86
2023/04/05 08:08:45;;;;;;;17.05;9.95;;;;;;;-144.87;100.00;61487.56;5028247;28;20054;-86
2023/04/05 08:11:11;;;;;;;17.55;9.63;;;;;;;-144.87;100.00;61487.56;5008169;28;20733;-86
2023/04/05 08:13:40;;;;;;;22.20;9.80;;;;;;;-144.87;100.00;61487.56;5024995;28;20519;-84
2023/04/05 08:16:07;;;;;;;17.98;8.52;;;;;;;-144.87;100.00;61487.56;5024617;28;20394;-86
2023/04/05 08:18:34;;;;;;;14.32;9.20;;;;;;;-144.87;100.00;61487.56;5009598;28;20037;-85
2023/04/05 08:21:21;;;;;;;11.65;8.60;;;;;;;-144.87;100.00;61487.56;5027497;28;20414;-85
2023/04/05 08:23:48;;;;;;;14.65;8.65;;;;;;;-144.87;100.00;61487.56;5023904;28;20114;-85
2023/04/05 08:26:15;;;;;;;15.70;8.23;;;;;;;-144.87;100.00;61487.56;5023911;28;21337;-85
2023/04/05 08:28:41;;;;;;;17.38;8.70;;;;;;;-144.87;100.00;61487.56;5027174;28;20045;-85
2023/04/05 08:31:08;;;;;;;21.20;8.57;;;;;;;-144.87;100.00;61487.56;5007930;28;20140;-86
2023/04/05 08:33:34;;;;;;;13.20;8.52;;;;;;;-144.87;100.00;61487.56;5023871;28;20041;-84
2023/04/05 08:36:05;;;;;;;19.35;9.15;;;;;;;-144.87;100.00;61487.56;5025834;28;20033;-84
2023/04/05 08:38:31;;;;;;;16.20;8.02;;;;;;;-144.87;100.00;61487.56;5028501;28;20128;-87
2023/04/05 08:41:14;;;;;;;13.02;7.95;;;;;;;-144.87;100.00;61487.56;5026637;28;20124;-85
2023/04/05 08:44:02;;;;;;;14.43;7.15;;;;;;;-144.87;100.00;61487.56;5009462;28;20041;-86
2023/04/05 08:46:33;;;;;;;27.30;7.90;;;;;;;-144.87;100.00;61487.56;5009210;28;20613;-88
2023/04/05 08:49:03;;;;;;;12.07;7.07;;;;;;;-144.87;100.00;61487.56;5012014;28;20034;-88
2023/04/05 08:51:49;;;;;;;12.93;6.30;;;;;;;-144.87;100.00;61487.56;5027548;28;20037;-87
2023/04/05 08:54:16;;;;;;;14.68;6.70;;;;;;;-144.87;100.00;61487.56;5028041;28;20151;-89
2023/04/05 08:56:47;;;;;;;12.23;6.90;;;;;;;-144.87;100.00;61487.56;5030438;28;20060;-88
2023/04/05 08:59:51;;;;;;;9.07;6.10;;;;;;;-144.87;100.00;61487.56;5029458;28;20064;-89
2023/04/05 09:02:19;;;;;;;8.02;5.72;;;;;;;-144.87;100.00;61487.56;5029776;28;20035;-88
2023/04/05 09:04:47;;;;;;;11.00;6.10;;;;;;;-144.87;100.00;61487.56;5012911;28;20459;-89
2023/04/05 09:07:15;;;;;;;13.10;6.10;;;;;;;-144.87;100.00;61487.56;5029681;28;20041;-88
2023/04/05 09:09:51;;;;;;;12.48;5.30;;;;;;;-144.87;100.00;61487.56;5027310;28;20068;-89
2023/04/05 09:12:21;;;;;;;9.65;5.15;;;;;;;-144.87;100.00;61487.56;5011805;28;20033;-88
2023/04/05 09:15:25;;;;;;;7.05;5.15;;;;;;;-144.87;100.00;61487.56;5029725;28;20048;-87
2023/04/05 09:17:54;;;;;;;9.63;5.78;;;;;;;-144.87;100.00;61487.56;5028923;28;20045;-88
2023/04/05 09:20:21;;;;;;;13.95;5.55;;;;;;;-144.87;100.00;61487.56;5028773;28;20460;-89
2023/04/05 09:23:08;;;;;;;8.25;5.43;;;;;;;-144.87;100.00;61487.56;5006715;28;20040;-90
2023/04/05 09:25:37;;;;;;;14.55;5.72;;;;;;;-144.87;100.00;61487.56;5029221;28;20152;-88
2023/04/05 09:28:42;;;;;;;11.07;6.63;;;;;;;-144.87;100.00;61487.56;5011787;28;20034;-88
2023/04/05 09:31:45;;;;;;;11.73;6.80;;;;;;;-144.87;100.00;61487.56;5026986;28;20032;-88
2023/04/05 09:34:22;;;;;;;13.70;7.30;;;;;;;-144.87;100.00;61487.56;5028696;28;20175;-88
2023/04/05 09:36:49;;;;;;;12.32;7.65;;;;;;;-144.87;100.00;61487.56;5028985;28;20041;-88
2023/04/05 09:39:20;;;;;;;13.63;6.45;;;;;;;-144.87;100.00;61487.56;5029283;28;20055;-87
2023/04/05 09:42:04;;;;;;;14.45;7.13;;;;;;;-144.87;100.00;61487.56;5029750;28;20053;-88
2023/04/05 09:45:01;;;;;;;10.85;7.50;;;;;;;-144.87;100.00;61487.56;5011349;28;20098;-88
2023/04/05 09:47:53;;;;;;;10.05;7.22;;;;;;;-144.87;100.00;61487.56;5030483;28;20116;-89
2023/04/05 09:50:20;;;;;;;12.73;8.40;;;;;;;-144.87;100.00;61487.56;5012051;28;20083;-88
2023/04/05 09:52:47;;;;;;;15.70;7.05;;;;;;;-144.87;100.00;61487.56;5026138;28;20152;-89
2023/04/05 09:55:14;;;;;;;12.77;8.18;;;;;;;-144.87;100.00;61487.56;4996838;28;20509;-88
2023/04/05 09:57:44;;;;;;;18.83;8.85;;;;;;;-144.87;100.00;61487.56;5013438;28;20037;-88
2023/04/05 10:00:19;;;;;;;15.03;8.20;;;;;;;-144.87;100.00;61487.56;5029714;28;20041;-89
2023/04/05 10:02:50;;;;;;;14.63;8.23;;;;;;;-144.87;100.00;61487.56;5026479;28;20363;-87
2023/04/05 10:05:36;;;;;;;11.85;7.05;;;;;;;-144.87;100.00;61487.56;5011876;28;20053;-88
2023/04/05 10:08:03;;;;;;;13.50;7.20;;;;;;;-144.87;100.00;61487.56;5009566;28;20100;-89
2023/04/05 10:10:30;;;;;;;13.48;7.38;;;;;;;-144.87;100.00;61487.56;5027415;28;20034;-88
2023/04/05 10:12:57;;;;;;;15.43;7.45;;;;;;;-144.87;100.00;61487.56;5023430;28;20025;-87
2023/04/05 10:15:43;;;;;;;10.35;7.15;;;;;;;-144.87;100.00;61487.56;5008823;28;20041;-87
2023/04/05 10:18:20;;;;;;;12.00;7.13;;;;;;;-144.87;100.00;61487.56;5027802;28;20534;-86
2023/04/05 10:20:50;;;;;;;15.07;7.20;;;;;;;-144.87;100.00;61487.56;5024694;28;20560;-89
2023/04/05 10:23:35;;;;;;;13.15;7.55;;;;;;;-144.87;100.00;61487.56;5027966;28;20576;-88
2023/04/05 10:26:16;;;;;;;12.00;7.38;;;;;;;-144.87;100.00;61487.56;5002447;28;20196;-88
2023/04/05 10:28:44;;;;;;;12.15;7.28;;;;;;;-144.87;100.00;61487.56;4990949;28;20043;-86
2023/04/05 10:31:41;;;;;;;13.32;7.90;;;;;;;-144.87;100.00;61487.56;4970956;28;20046;-87
2023/04/05 10:34:22;;;;;;;18.75;7.68;;;;;;;-144.87;100.00;61487.56;4988945;28;20072;-87
2023/04/05 10:37:08;;;;;;;10.27;7.10;;;;;;;-144.87;100.00;61487.56;5001912;28;20178;-86
2023/04/05 10:39:41;;;;;;;12.73;7.40;;;;;;;-144.87;100.00;61487.56;4989386;28;20092;-89
2023/04/05 10:42:19;;;;;;;11.88;7.82;;;;;;;-144.87;100.00;61487.56;5005460;28;20041;-88
2023/04/05 10:44:50;;;;;;;9.38;6.82;;;;;;;-144.87;100.00;61487.56;5008338;28;20042;-87
2023/04/05 10:47:18;;;;;;;14.40;7.68;;;;;;;-144.87;100.00;61487.56;4976986;28;20050;-88
2023/04/05 10:50:24;;;;;;;14.18;7.38;;;;;;;-144.87;100.00;61487.56;5009029;28;20427;-88
2023/04/05 10:52:52;;;;;;;11.57;7.53;;;;;;;-144.87;100.00;61487.56;4993830;28;20026;-88
2023/04/05 10:55:57;;;;;;;12.30;7.55;;;;;;;-144.87;100.00;61487.56;5008752;28;20032;-87
2023/04/05 10:58:24;;;;;;;10.93;7.40;;;;;;;-144.87;100.00;61487.56;4995665;28;20026;-86
2023/04/05 11:00:54;;;;;;;12.88;7.25;;;;;;;-144.87;100.00;61487.56;4991681;28;20034;-89
2023/04/05 11:03:53;;;;;;;15.27;8.02;;;;;;;-144.87;100.00;61487.56;5009968;28;20158;-89
2023/04/05 11:06:59;;;;;;;12.05;7.85;;;;;;;-144.87;100.00;61487.56;4958451;28;20047;-88
2023/04/05 11:09:26;;;;;;;14.32;7.95;;;;;;;-144.87;100.00;61487.56;4993546;28;20034;-89
2023/04/05 11:12:30;;;;;;;14.13;7.70;;;;;;;-144.87;100.00;61487.56;4997038;28;20050;-88
2023/04/05 11:15:31;;;;;;;10.60;7.25;;;;;;;-144.87;100.00;61487.56;4993777;28;20443;-87
2023/04/05 11:18:16;;;;;;;12.88;8.05;;;;;;;-144.87;100.00;61487.56;4995785;28;20038;-88
2023/04/05 11:20:54;;;;;;;12.52;7.78;;;;;;;-144.87;100.00;61487.56;4992709;28;20046;-88
2023/04/05 11:23:23;;;;;;;11.70;7.90;;;;;;;-144.87;100.00;61487.56;4993051;28;20049;-86
2023/04/05 11:26:09;;;;;;;11.35;7.97;;;;;;;-144.87;100.00;61487.56;5014574;28;20057;-89
2023/04/05 11:28:56;;;;;;;16.00;7.78;;;;;;;-144.87;100.00;61487.56;5011682;28;20060;-89
2023/04/05 11:31:25;;;;;;;25.38;8.45;;;;;;;-144.87;100.00;61487.56;5009902;28;20058;-88
2023/04/05 11:34:14;;;;;;;17.75;8.48;;;;;;;-144.87;100.00;61487.56;5012796;28;20050;-88
2023/04/05 11:36:46;;;;;;;14.18;8.20;;;;;;;-144.87;100.00;61487.56;5011259;28;20029;-86
2023/04/05 11:39:20;;;;;;;10.85;7.82;;;;;;;-144.87;100.00;61487.56;5005417;28;20042;-87
2023/04/05 11:41:46;;;;;;;12.38;8.25;;;;;;;-144.87;100.00;61487.56;5013909;28;20038;-86